Time;durP1;ratioP1;P1;durP2;ratioP2;P2;SDS_P1;SDS_P2;PMS_P1;PMS_P2;Temp;Humidity;BMP_temperature;BMP_pressure;BME280_temperature;BME280_humidity;BME280_pressure;Samples;Min_cycle;Max_cycle;Signal;HPM_P1;HPM_P2
2023/01/01 00:01:39;;;;;;;;;76.75;59.00;;;;;7.31;81.61;102629.28;146617;638;46017;-68
2023/01/01 00:04:48;;;;;;;;;77.00;63.25;;;;;7.32;81.59;102631.06;146621;589;46014;-68
2023/01/01 00:07:49;;;;;;;;;82.25;63.00;;;;;7.30;81.77;102628.38;146620;564;46013;-66
2023/01/01 00:10:54;;;;;;;;;;;;;;;;;;;;;
2023/01/01 00:14:02;;;;;;;;;74.75;56.25;;;;;7.29;82.21;102636.87;146620;595;46013;-67
2023/01/01 00:16:58;;;;;;;;;74.50;54.25;;;;;7.24;82.24;102632.94;146621;637;46020;-67
2023/01/01 00:19:59;;;;;;;;;75.50;55.75;;;;;7.11;81.63;102623.13;146616;570;46016;-67
2023/01/01 00:22:54;;;;;;;;;68.75;52.00;;;;;7.07;81.73;102625.25;146620;585;46020;-66
2023/01/01 00:25:59;;;;;;;;;68.00;52.00;;;;;6.94;81.19;102620.59;146617;563;46016;-67
2023/01/01 00:29:00;;;;;;;;;65.50;50.50;;;;;7.02;82.29;102636.81;146622;617;46021;-66
2023/01/01 00:32:02;;;;;;;;;67.25;52.00;;;;;7.02;81.91;102627.41;146618;569;46016;-66
2023/01/01 00:35:02;;;;;;;;;76.50;56.00;;;;;7.04;81.88;102630.13;146619;613;46020;-66
2023/01/01 00:37:59;;;;;;;;;69.75;54.50;;;;;7.04;81.40;102638.81;146619;660;46012;-67
2023/01/01 00:41:03;;;;;;;;;75.75;56.75;;;;;7.08;81.86;102642.56;146620;650;46010;-66
2023/01/01 00:44:09;;;;;;;;;73.25;55.50;;;;;7.07;82.21;102645.91;146619;602;46016;-66
2023/01/01 00:47:01;;;;;;;;;68.50;52.00;;;;;7.03;81.64;102643.78;146623;628;46010;-64
2023/01/01 00:50:05;;;;;;;;;71.50;54.25;;;;;7.04;81.91;102649.12;146616;564;46013;-66
2023/01/01 00:53:08;;;;;;;;;69.50;53.25;;;;;7.05;82.00;102647.44;146622;581;46010;-65
2023/01/01 00:56:05;;;;;;;;;81.00;60.25;;;;;7.05;81.79;102652.59;146618;639;46012;-68
2023/01/01 00:59:06;;;;;;;;;72.00;56.75;;;;;7.04;81.50;102653.34;146621;622;46014;-67
2023/01/01 01:02:00;;;;;;;;;76.25;57.00;;;;;7.06;81.74;102664.72;146617;595;46016;-66
2023/01/01 01:04:57;;;;;;;;;79.75;63.50;;;;;7.04;81.73;102654.28;146623;590;46020;-66
2023/01/01 01:07:58;;;;;;;;;81.25;60.75;;;;;7.02;81.75;102655.78;146619;580;46012;-66
2023/01/01 01:10:51;;;;;;;;;80.00;61.33;;;;;7.00;81.23;102659.88;146622;589;46010;-67
2023/01/01 01:13:52;;;;;;;;;84.33;68.33;;;;;6.97;81.69;102654.41;146614;579;46017;-66
2023/01/01 01:16:48;;;;;;;;;74.00;59.33;;;;;6.93;81.62;102655.81;146621;577;46010;-65
2023/01/01 01:19:43;;;;;;;;;76.50;61.75;;;;;6.88;82.33;102650.97;146617;593;46016;-67
2023/01/01 01:22:47;;;;;;;;;84.50;63.00;;;;;6.81;82.48;102645.97;146623;577;46010;-68
2023/01/01 01:25:42;;;;;;;;;76.75;57.50;;;;;6.72;82.77;102644.31;146614;569;46012;-66
2023/01/01 01:28:34;;;;;;;;;78.50;56.25;;;;;6.69;83.13;102656.91;146612;552;47021;-69
2023/01/01 01:31:34;;;;;;;;;80.00;59.67;;;;;6.64;83.72;102646.94;146612;582;46016;-69
2023/01/01 01:34:42;;;;;;;;;78.25;57.00;;;;;6.54;83.47;102641.59;146615;637;46011;-68
2023/01/01 01:37:43;;;;;;;;;72.00;55.00;;;;;6.54;83.22;102634.81;146611;579;46016;-66
2023/01/01 01:40:59;;;;;;;;;69.75;52.75;;;;;6.49;82.69;102628.28;146613;731;46020;-66
2023/01/01 01:44:01;;;;;;;;;70.25;53.75;;;;;6.53;83.10;102632.06;146610;586;46016;-68
2023/01/01 01:47:02;;;;;;;;;66.00;52.75;;;;;6.55;83.48;102635.72;146615;596;46020;-67
2023/01/01 01:50:18;;;;;;;;;73.00;52.50;;;;;6.57;83.00;102627.34;146611;570;46016;-68
2023/01/01 01:53:35;;;;;;;;;64.75;46.25;;;;;6.60;83.97;102625.06;146615;618;46010;-65
2023/01/01 01:56:41;;;;;;;;;63.25;48.75;;;;;6.59;83.35;102628.41;146612;597;46016;-66
2023/01/01 01:59:41;;;;;;;;;62.25;47.50;;;;;6.59;83.91;102631.00;146612;614;46010;-65
2023/01/01 02:02:55;;;;;;;;;61.00;45.50;;;;;6.61;83.57;102621.75;146613;689;46014;-68
2023/01/01 02:05:52;;;;;;;;;58.00;44.25;;;;;6.63;84.30;102627.94;146610;610;46021;-70
2023/01/01 02:09:05;;;;;;;;;62.75;46.00;;;;;6.63;83.82;102611.56;146612;683;46037;-70
2023/01/01 02:12:04;;;;;;;;;58.00;44.75;;;;;6.71;84.20;102620.97;146614;681;46011;-68
2023/01/01 02:14:59;;;;;;;;;57.25;42.75;;;;;6.70;83.87;102614.00;146612;581;46016;-67
2023/01/01 02:18:19;;;;;;;;;57.25;45.00;;;;;6.74;83.97;102613.53;146613;569;46020;-68
2023/01/01 02:21:23;;;;;;;;;56.50;42.25;;;;;6.78;83.61;102618.22;146611;599;46012;-68
2023/01/01 02:24:54;;;;;;;;;57.25;43.25;;;;;6.81;83.16;102615.03;146616;601;46020;-68
2023/01/01 02:28:36;;;;;;;;;55.00;41.25;;;;;6.78;82.73;102607.00;146613;572;46013;-67
2023/01/01 02:31:38;;;;;;;;;54.00;38.00;;;;;6.87;83.41;102626.84;146616;613;46020;-65
2023/01/01 02:34:36;;;;;;;;;47.25;38.00;;;;;6.90;83.61;102623.66;146613;620;46017;-66
2023/01/01 02:37:35;;;;;;;;;44.75;34.25;;;;;6.92;83.33;102624.72;146615;594;46020;-64
2023/01/01 02:40:29;;;;;;;;;48.00;36.00;;;;;6.92;83.42;102623.06;146613;621;46016;-64
2023/01/01 02:43:27;;;;;;;;;45.75;34.75;;;;;6.94;83.39;102628.34;146612;573;46021;-63
2023/01/01 02:46:28;;;;;;;;;44.00;35.75;;;;;6.93;83.27;102619.69;146611;569;46012;-64
2023/01/01 02:49:33;;;;;;;;;49.00;36.25;;;;;6.94;82.97;102623.19;146613;600;46014;-65
2023/01/01 02:52:58;;;;;;;;;42.00;33.75;;;;;5.68;82.19;102393.69;146612;599;46016;-65
2023/01/01 02:56:44;;;;;;;;;47.00;36.00;;;;;6.99;82.56;102619.38;146615;576;46015;-63
2023/01/01 03:00:32;;;;;;;;;40.25;34.00;;;;;6.93;82.25;102604.22;146611;598;46014;-65
2023/01/01 03:04:06;;;;;;;;;45.50;32.25;;;;;6.93;82.20;102590.44;146616;711;46025;-66
2023/01/01 03:07:50;;;;;;;;;36.00;28.50;;;;;5.76;81.96;102377.31;146614;647;46016;-67
2023/01/01 03:11:13;;;;;;;;;41.00;33.00;;;;;7.10;82.13;102612.66;146615;591;46020;-68
2023/01/01 03:14:56;;;;;;;;;41.50;33.75;;;;;7.11;82.24;102606.75;146610;597;47016;-70
2023/01/01 03:18:19;;;;;;;;;34.50;30.75;;;;;7.12;82.47;102613.72;146613;646;46010;-67
2023/01/01 03:21:21;;;;;;;;;32.75;27.25;;;;;7.14;82.46;102610.53;146612;591;46016;-68
2023/01/01 03:24:46;;;;;;;;;35.00;31.00;;;;;7.04;82.04;102591.44;146614;630;46029;-69
2023/01/01 03:28:24;;;;;;;;;34.75;30.25;;;;;7.12;82.08;102608.56;146616;625;46016;-68
2023/01/01 03:31:22;;;;;;;;;30.75;26.75;;;;;7.09;82.48;102610.84;146621;647;46014;-69
2023/01/01 03:34:30;;;;;;;;;34.75;25.25;;;;;7.10;82.25;102597.19;146619;595;46016;-68
2023/01/01 03:37:39;;;;;;;;;33.25;24.25;;;;;7.04;81.72;102579.47;146621;614;46020;-69
2023/01/01 03:40:41;;;;;;;;;29.00;25.75;;;;;5.97;81.51;102400.00;146618;594;46016;-69
2023/01/01 03:44:14;;;;;;;;;31.00;25.25;;;;;7.09;81.83;102601.44;146620;603;46021;-69
2023/01/01 03:47:11;;;;;;;;;29.00;23.50;;;;;7.04;81.87;102613.00;146616;617;46916;-69
2023/01/01 03:50:32;;;;;;;;;26.50;24.25;;;;;7.00;81.92;102608.28;146617;602;46021;-69
2023/01/01 03:53:55;;;;;;;;;31.00;24.00;;;;;6.96;81.39;102607.88;146617;569;46014;-67
2023/01/01 03:57:11;;;;;;;;;31.50;26.75;;;;;6.91;82.16;102613.47;146622;590;46023;-67
2023/01/01 04:00:26;;;;;;;;;32.25;24.00;;;;;6.87;82.24;102620.78;146618;626;46016;-67
2023/01/01 04:03:37;;;;;;;;;26.25;22.00;;;;;6.83;82.80;102624.75;146621;662;45029;-67
2023/01/01 04:06:36;;;;;;;;;29.25;27.25;;;;;6.74;82.20;102625.53;146616;566;48014;-67
2023/01/01 04:09:36;;;;;;;;;31.50;23.50;;;;;6.63;82.90;102622.78;146622;588;46010;-67
2023/01/01 04:12:41;;;;;;;;;32.25;28.00;;;;;6.60;83.30;102629.31;146617;635;46016;-68
2023/01/01 04:15:47;;;;;;;;;35.50;28.25;;;;;6.52;82.77;102620.84;146619;563;46010;-67
2023/01/01 04:18:40;;;;;;;;;33.25;25.50;;;;;6.58;83.69;102642.06;146618;628;46013;-68
2023/01/01 04:21:36;;;;;;;;;28.75;25.75;;;;;6.60;83.63;102635.38;146619;625;46020;-69
2023/01/01 04:24:36;;;;;;;;;31.50;25.00;;;;;6.62;83.91;102639.03;146616;569;46016;-68
2023/01/01 04:27:35;;;;;;;;;25.00;21.75;;;;;6.63;83.57;102640.84;146615;564;46014;-69
2023/01/01 04:30:32;;;;;;;;;27.25;23.75;;;;;6.64;83.35;102646.94;146612;620;46012;-70
2023/01/01 04:33:34;;;;;;;;;25.75;22.50;;;;;5.54;83.32;102466.94;146613;639;46020;-69
2023/01/01 04:36:27;;;;;;;;;31.75;25.25;;;;;6.68;83.29;102649.03;146611;632;46031;-69
2023/01/01 04:39:27;;;;;;;;;29.50;25.25;;;;;6.72;83.35;102656.28;146611;629;46020;-70
2023/01/01 04:42:26;;;;;;;;;25.00;24.00;;;;;6.69;83.43;102653.41;146608;588;47014;-68
2023/01/01 04:45:18;;;;;;;;;30.25;23.50;;;;;6.77;83.21;102665.41;146616;585;46020;-69
2023/01/01 04:48:11;;;;;;;;;31.75;24.50;;;;;6.79;83.42;102669.06;146613;574;46012;-69
2023/01/01 04:51:18;;;;;;;;;33.50;24.25;;;;;6.80;83.40;102675.09;146611;607;46021;-68
2023/01/01 04:54:11;;;;;;;;;24.25;21.50;;;;;6.83;83.39;102675.41;146612;594;46914;-69
2023/01/01 04:57:16;;;;;;;;;33.50;27.50;;;;;5.32;82.36;102405.66;146612;592;46021;-69
2023/01/01 05:00:15;;;;;;;;;29.50;25.00;;;;;6.76;82.27;102676.47;146611;683;46016;-67
2023/01/01 05:03:28;;;;;;;;;30.75;25.75;;;;;4.19;81.97;102228.97;146614;583;46020;-67
2023/01/01 05:06:27;;;;;;;;;27.25;25.25;;;;;6.65;81.82;102674.50;146610;646;47016;-67
2023/01/01 05:09:49;;;;;;;;;;;;;;;;;;;;;
2023/01/01 05:12:47;;;;;;;;;29.75;25.25;;;;;6.54;82.13;102688.00;146613;564;46012;-65
2023/01/01 05:15:44;;;;;;;;;30.75;25.00;;;;;6.47;81.94;102689.06;146613;602;46010;-66
2023/01/01 05:18:43;;;;;;;;;30.50;26.00;;;;;6.41;81.55;102693.63;146613;564;46016;-67
2023/01/01 05:21:44;;;;;;;;;26.00;22.25;;;;;6.38;82.06;102693.31;146611;570;46020;-65
2023/01/01 05:24:47;;;;;;;;;26.75;22.50;;;;;6.37;82.36;102700.13;146612;621;46015;-68
2023/01/01 05:27:45;;;;;;;;;29.25;21.25;;;;;6.37;82.72;102709.53;146622;643;46010;-68
2023/01/01 05:30:46;;;;;;;;;26.00;24.25;;;;;6.36;82.33;102705.16;146616;589;46016;-68
2023/01/01 05:33:40;;;;;;;;;26.75;22.75;;;;;6.34;82.98;102707.56;146621;565;46010;-64
2023/01/01 05:36:52;;;;;;;;;27.50;23.25;;;;;3.51;81.79;102228.88;146618;647;46012;-65
2023/01/01 05:39:47;;;;;;;;;24.50;21.00;;;;;6.28;82.82;102706.03;146618;570;47020;-65
2023/01/01 05:42:39;;;;;;;;;30.25;25.50;;;;;6.24;82.68;102712.56;146618;571;46012;-65
2023/01/01 05:45:44;;;;;;;;;33.50;28.50;;;;;6.24;83.11;102705.72;146618;565;46020;-65
2023/01/01 05:48:56;;;;;;;;;31.00;24.25;;;;;6.22;82.32;102708.91;146616;623;47014;-65
2023/01/01 05:51:59;;;;;;;;;28.25;26.50;;;;;6.23;83.34;102708.13;146618;569;46010;-68
2023/01/01 05:54:58;;;;;;;;;31.25;23.75;;;;;6.20;82.95;102707.87;146617;590;46013;-67
2023/01/01 05:57:50;;;;;;;;;30.00;23.25;;;;;6.14;82.64;102709.81;146622;569;46020;-67
2023/01/01 06:00:46;;;;;;;;;22.25;18.75;;;;;6.13;82.32;102705.41;146617;634;46016;-68
2023/01/01 06:03:41;;;;;;;;;29.00;25.00;;;;;6.13;82.81;102718.28;146621;584;46021;-68
2023/01/01 06:06:38;;;;;;;;;34.25;23.00;;;;;6.13;82.68;102711.47;146618;566;46014;-68
2023/01/01 06:09:33;;;;;;;;;22.75;20.50;;;;;6.12;82.55;102709.66;146622;565;46010;-69
2023/01/01 06:12:31;;;;;;;;;20.25;16.50;;;;;6.11;81.92;102718.16;146618;665;46016;-68
2023/01/01 06:15:46;;;;;;;;;;;;;;;;;;;;;
2023/01/01 06:18:42;;;;;;;;;25.00;20.50;;;;;6.15;82.17;102720.25;146617;575;46014;-67
2023/01/01 06:21:34;;;;;;;;;34.50;26.75;;;;;6.19;82.32;102713.75;146619;652;46010;-66
2023/01/01 06:24:32;;;;;;;;;33.25;27.25;;;;;6.24;82.16;102715.13;146618;583;46017;-67
2023/01/01 06:27:24;;;;;;;;;29.50;27.25;;;;;6.23;81.85;102723.59;146613;563;46010;-67
2023/01/01 06:30:25;;;;;;;;;31.75;28.75;;;;;6.28;82.38;102724.06;146615;595;46012;-66
2023/01/01 06:33:22;;;;;;;;;32.75;28.25;;;;;6.29;82.62;102731.94;146614;697;46020;-67
2023/01/01 06:36:41;;;;;;;;;31.00;25.75;;;;;6.29;83.00;102746.50;146615;580;46012;-67
2023/01/01 06:39:39;;;;;;;;;31.25;27.00;;;;;6.32;82.71;102733.91;146614;630;46010;-67
2023/01/01 06:42:37;;;;;;;;;36.75;30.00;;;;;6.36;83.16;102728.34;146612;581;46012;-71
2023/01/01 06:45:34;;;;;;;;;32.50;26.50;;;;;6.40;83.26;102736.50;146614;631;46010;-69
2023/01/01 06:48:41;;;;;;;;;37.50;28.25;;;;;6.45;82.99;102729.25;146612;685;46012;-72
2023/01/01 06:51:46;;;;;;;;;28.00;24.75;;;;;6.54;83.01;102730.19;146609;636;47014;-71
2023/01/01 06:54:51;;;;;;;;;30.50;25.75;;;;;6.58;83.04;102729.72;146611;578;46014;-72
2023/01/01 06:57:46;;;;;;;;;36.75;28.25;;;;;6.65;83.25;102720.91;146613;633;46020;-71
2023/01/01 07:00:44;;;;;;;;;32.75;26.75;;;;;6.74;83.08;102724.41;146612;623;46016;-69
2023/01/01 07:03:47;;;;;;;;;34.00;29.25;;;;;6.80;83.15;102734.41;146614;564;46020;-67
2023/01/01 07:06:45;;;;;;;;;36.00;28.75;;;;;6.92;83.26;102730.47;146613;566;46016;-69
2023/01/01 07:09:39;;;;;;;;;38.25;30.75;;;;;7.08;84.46;102720.88;146614;681;46020;-69
2023/01/01 07:12:59;;;;;;;;;29.75;28.00;;;;;6.72;83.71;102612.47;146611;593;46016;-68
2023/01/01 07:15:54;;;;;;;;;32.25;26.00;;;;;7.48;83.15;102726.38;146614;655;46011;-67
2023/01/01 07:18:49;;;;;;;;;27.00;24.25;;;;;7.92;86.41;102728.00;146613;597;46014;-66
2023/01/01 07:22:07;;;;;;;;;36.75;28.75;;;;;8.81;89.81;102725.84;146608;613;46912;-68
2023/01/01 07:25:11;;;;;;;;;31.50;27.00;;;;;9.99;87.15;102722.38;146613;563;46014;-68
2023/01/01 07:28:04;;;;;;;;;35.00;28.25;;;;;10.97;79.91;102720.22;146614;578;46020;-67
2023/01/01 07:31:03;;;;;;;;;34.25;28.50;;;;;11.85;77.15;102725.53;146613;564;46016;-66
2023/01/01 07:33:55;;;;;;;;;29.00;24.75;;;;;12.65;73.58;102724.72;146613;595;46010;-67
2023/01/01 07:36:57;;;;;;;;;40.25;29.00;;;;;12.14;69.45;102527.53;146615;581;46033;-68
2023/01/01 07:39:53;;;;;;;;;33.25;28.00;;;;;13.68;67.52;102724.38;146616;589;46010;-67
2023/01/01 07:42:51;;;;;;;;;42.50;33.25;;;;;14.15;64.62;102718.97;146612;602;46916;-68
2023/01/01 07:45:43;;;;;;;;;37.75;33.00;;;;;14.45;62.93;102721.00;146615;570;46010;-68
2023/01/01 07:48:37;;;;;;;;;48.25;35.75;;;;;14.64;60.32;102712.75;146612;615;46016;-69
2023/01/01 07:51:30;;;;;;;;;37.75;32.75;;;;;14.61;59.78;102707.34;146609;593;46020;-68
2023/01/01 07:54:34;;;;;;;;;46.25;36.50;;;;;14.57;58.86;102720.97;146614;574;46016;-71
2023/01/01 07:57:26;;;;;;;;;37.50;32.75;;;;;14.31;57.68;102716.59;146614;595;47014;-67
2023/01/01 08:00:29;;;;;;;;;39.00;32.00;;;;;13.95;59.24;102728.00;146610;592;46016;-67
2023/01/01 08:03:29;;;;;;;;;38.25;31.50;;;;;13.54;59.71;102724.28;146614;563;46020;-67
2023/01/01 08:06:30;;;;;;;;;36.75;31.00;;;;;13.14;60.34;102725.69;146613;590;46012;-68
2023/01/01 08:09:22;;;;;;;;;43.75;32.00;;;;;12.79;62.03;102736.16;146614;612;46010;-68
2023/01/01 08:12:21;;;;;;;;;29.00;25.50;;;;;12.48;62.46;102724.34;146612;667;46016;-68
2023/01/01 08:15:35;;;;;;;;;28.75;27.25;;;;;10.99;64.89;102509.28;146617;627;46020;-68
2023/01/01 08:18:30;;;;;;;;;42.75;32.25;;;;;12.18;64.37;102732.41;146612;621;46016;-69
2023/01/01 08:21:24;;;;;;;;;42.75;34.50;;;;;12.11;66.01;102743.12;146613;643;46020;-68
2023/01/01 08:24:25;;;;;;;;;34.75;30.75;;;;;12.10;65.36;102747.44;146611;577;46014;-68
2023/01/01 08:27:25;;;;;;;;;32.75;30.25;;;;;12.08;65.67;102737.69;146613;608;47010;-67
2023/01/01 08:30:19;;;;;;;;;44.25;34.50;;;;;12.11;67.43;102743.12;146614;590;46013;-67
2023/01/01 08:33:17;;;;;;;;;45.50;35.50;;;;;12.24;67.13;102744.22;146614;564;46020;-68
2023/01/01 08:36:10;;;;;;;;;38.00;32.25;;;;;12.43;66.02;102743.91;146612;636;46012;-67
2023/01/01 08:39:02;;;;;;;;;37.00;31.50;;;;;12.52;64.92;102742.78;146607;597;46916;-68
2023/01/01 08:41:55;;;;;;;;;38.25;29.75;;;;;12.48;64.25;102739.03;146611;582;46016;-67
2023/01/01 08:44:47;;;;;;;;;39.25;32.75;;;;;12.34;64.73;102735.41;146613;709;46029;-67
2023/01/01 08:47:39;;;;;;;;;43.00;33.25;;;;;12.30;65.59;102735.94;146610;586;46016;-68
2023/01/01 08:50:32;;;;;;;;;47.00;36.00;;;;;12.28;66.11;102736.66;146613;580;46010;-67
2023/01/01 08:53:25;;;;;;;;;39.75;32.50;;;;;12.24;65.70;102731.22;146610;594;46017;-69
2023/01/01 08:56:20;;;;;;;;;35.75;30.00;;;;;12.32;66.30;102743.88;146616;580;46010;-70
2023/01/01 08:59:26;;;;;;;;;;;;;;;;;;;;;
2023/01/01 09:02:30;;;;;;;;;47.75;38.75;;;;;12.46;66.44;102738.00;146616;652;46010;-65
2023/01/01 09:05:26;;;;;;;;;45.75;37.50;;;;;12.63;66.95;102737.59;146612;569;46916;-67
2023/01/01 09:08:26;;;;;;;;;43.25;34.00;;;;;12.87;65.79;102743.72;146615;671;46020;-68
2023/01/01 09:11:38;;;;;;;;;45.00;38.00;;;;;13.12;66.27;102732.53;146609;597;47016;-68
2023/01/01 09:14:39;;;;;;;;;55.00;41.50;;;;;13.33;64.04;102741.94;146615;746;46010;-67
2023/01/01 09:17:41;;;;;;;;;52.50;42.00;;;;;13.44;63.75;102733.97;146611;581;47014;-69
2023/01/01 09:20:33;;;;;;;;;49.75;39.75;;;;;13.55;63.61;102723.53;146611;569;46010;-66
2023/01/01 09:23:26;;;;;;;;;48.50;38.25;;;;;13.63;62.79;102729.25;146610;626;46916;-67
2023/01/01 09:26:38;;;;;;;;;;;;;;;;;;;;;
2023/01/01 09:29:37;;;;;;;;;51.75;42.75;;;;;13.66;62.35;102715.53;146613;620;46012;-68
2023/01/01 09:32:29;;;;;;;;;44.75;36.00;;;;;13.64;62.95;102715.41;146617;616;45020;-67
2023/01/01 09:35:38;;;;;;;;;46.75;38.50;;;;;13.70;64.00;102713.25;146612;646;46016;-68
2023/01/01 09:38:38;;;;;;;;;45.50;33.75;;;;;13.78;63.33;102714.69;146614;607;46014;-68
2023/01/01 09:42:26;;;;;;;;;44.25;36.25;;;;;12.39;64.33;102455.69;146609;620;46016;-66
2023/01/01 09:45:57;;;;;;;;;45.00;35.75;;;;;12.51;62.98;102462.56;146614;640;47010;-68
2023/01/01 09:49:01;;;;;;;;;40.00;33.00;;;;;13.84;62.11;102698.59;146613;563;46012;-69
2023/01/01 09:52:00;;;;;;;;;41.75;34.00;;;;;13.81;63.29;102700.97;146614;631;46021;-68
2023/01/01 09:55:17;;;;;;;;;39.75;34.00;;;;;13.91;62.45;102686.88;146612;575;46014;-67
2023/01/01 09:58:13;;;;;;;;;47.25;36.75;;;;;13.96;62.05;102685.50;146615;573;46010;-68
2023/01/01 10:01:38;;;;;;;;;52.00;41.00;;;;;12.55;62.32;102431.66;146611;581;46016;-68
2023/01/01 10:05:32;;;;;;;;;45.75;37.00;;;;;11.71;63.32;102283.56;146614;577;46020;-67
2023/01/01 10:09:07;;;;;;;;;45.00;36.75;;;;;12.63;63.16;102427.91;146611;612;46012;-67
2023/01/01 10:12:22;;;;;;;;;45.75;36.00;;;;;14.13;63.04;102665.75;146615;619;46010;-68
2023/01/01 10:15:29;;;;;;;;;43.75;35.00;;;;;14.21;62.09;102660.28;146613;589;46016;-67
2023/01/01 10:18:42;;;;;;;;;40.50;33.00;;;;;14.27;61.63;102654.56;146612;653;46020;-67
2023/01/01 10:21:43;;;;;;;;;42.00;34.25;;;;;14.35;61.61;102660.28;146611;616;46017;-67
2023/01/01 10:25:10;;;;;;;;;45.50;35.25;;;;;14.39;61.01;102650.16;146615;578;46020;-68
2023/01/01 10:28:13;;;;;;;;;44.75;35.00;;;;;14.46;61.39;102648.84;146613;612;46016;-68
2023/01/01 10:31:55;;;;;;;;;;;;;;;;;;;;;
2023/01/01 10:34:56;;;;;;;;;52.00;41.00;;;;;14.55;60.88;102644.28;146610;643;46033;-68
2023/01/01 10:37:51;;;;;;;;;44.75;36.50;;;;;14.68;60.46;102646.87;146613;618;46014;-66
2023/01/01 10:40:47;;;;;;;;;44.00;34.75;;;;;14.73;60.53;102644.56;146614;579;46012;-66
2023/01/01 10:43:45;;;;;;;;;41.75;35.00;;;;;14.74;60.68;102634.22;146613;572;46020;-67
2023/01/01 10:46:46;;;;;;;;;42.75;35.25;;;;;14.88;60.34;102628.97;146609;631;47012;-68
2023/01/01 10:50:06;;;;;;;;;41.50;34.00;;;;;12.84;60.93;102240.16;146614;586;46010;-68
2023/01/01 10:53:08;;;;;;;;;48.50;38.75;;;;;15.17;59.69;102628.19;146611;617;46016;-67
2023/01/01 10:56:15;;;;;;;;;48.00;37.25;;;;;15.29;60.41;102628.06;146611;622;46020;-67
2023/01/01 10:59:07;;;;;;;;;45.00;35.75;;;;;15.41;57.97;102618.38;146609;598;46017;-66
2023/01/01 11:02:31;;;;;;;;;47.50;37.75;;;;;15.48;59.39;102612.72;146615;564;46020;-68
2023/01/01 11:05:37;;;;;;;;;53.25;40.00;;;;;14.26;60.07;102379.66;146614;610;46016;-68
2023/01/01 11:08:32;;;;;;;;;39.50;33.25;;;;;15.67;59.17;102615.69;146614;569;46021;-68
2023/01/01 11:11:34;;;;;;;;;56.00;43.00;;;;;15.85;60.19;102601.91;146612;608;46016;-67
2023/01/01 11:14:58;;;;;;;;;51.00;41.25;;;;;16.06;58.92;102610.13;146613;671;46021;-66
2023/01/01 11:18:34;;;;;;;;;;;;;;;;;;;;;
2023/01/01 11:21:48;;;;;;;;;65.25;49.25;;;;;16.34;56.33;102595.19;146614;592;46020;-67
2023/01/01 11:24:44;;;;;;;;;55.25;43.25;;;;;16.40;57.52;102586.81;146612;602;46915;-67
2023/01/01 11:27:41;;;;;;;;;49.75;40.25;;;;;16.47;54.80;102588.06;146612;649;46028;-66
2023/01/01 11:30:36;;;;;;;;;50.50;40.00;;;;;16.44;55.16;102591.38;146609;567;46017;-67
2023/01/01 11:33:44;;;;;;;;;37.50;29.50;;;;;16.34;55.07;102582.13;146612;564;46020;-68
2023/01/01 11:36:48;;;;;;;;;45.25;38.25;;;;;16.24;55.87;102581.50;146612;570;46916;-67
2023/01/01 11:40:02;;;;;;;;;;;;;;;;;;;;;
2023/01/01 11:43:05;;;;;;;;;48.00;37.75;;;;;16.27;56.07;102571.22;146610;578;46012;-67
2023/01/01 11:46:04;;;;;;;;;47.25;38.75;;;;;16.32;56.24;102572.37;146614;591;46031;-70
2023/01/01 11:49:00;;;;;;;;;42.25;31.75;;;;;16.36;54.88;102569.13;146607;648;46032;-69
2023/01/01 11:51:55;;;;;;;;;40.25;33.75;;;;;16.39;55.64;102567.59;146612;583;46021;-66
2023/01/01 11:54:58;;;;;;;;;40.75;35.00;;;;;16.44;54.37;102561.69;146612;594;46016;-64
2023/01/01 11:58:32;;;;;;;;;53.25;43.25;;;;;16.47;54.72;102557.53;146611;597;46020;-68
2023/01/01 12:02:13;;;;;;;;;41.00;33.00;;;;;15.27;56.56;102334.38;146610;603;46913;-61
2023/01/01 12:05:35;;;;;;;;;59.25;46.25;;;;;15.38;56.25;102333.28;146615;592;46010;-68
2023/01/01 12:08:58;;;;;;;;;45.75;37.50;;;;;15.53;55.56;102326.31;146611;605;46012;-67
2023/01/01 12:12:25;;;;;;;;;49.50;39.25;;;;;16.91;54.31;102550.38;146614;573;46012;-65
2023/01/01 12:16:20;;;;;;;;;50.50;41.00;;;;;14.81;56.63;102155.00;146611;580;46012;-66
2023/01/01 12:19:58;;;;;;;;;58.50;45.25;;;;;16.00;55.67;102325.47;146614;573;46020;-67
2023/01/01 12:23:02;;;;;;;;;63.50;50.25;;;;;17.38;53.22;102536.28;146613;625;46034;-66
2023/01/01 12:26:32;;;;;;;;;63.50;49.00;;;;;16.58;55.17;102346.03;146618;570;46020;-65
2023/01/01 12:30:05;;;;;;;;;50.50;40.50;;;;;17.83;54.74;102522.03;146618;570;46915;-68
2023/01/01 12:33:39;;;;;;;;;49.75;39.50;;;;;18.13;56.39;102526.97;146620;696;46010;-66
2023/01/01 12:37:24;;;;;;;;;48.50;39.50;;;;;17.27;52.53;102312.88;146617;579;46017;-65
2023/01/01 12:40:55;;;;;;;;;51.00;41.25;;;;;18.57;51.92;102512.50;146618;582;46020;-66
2023/01/01 12:44:30;;;;;;;;;59.50;45.25;;;;;18.66;52.79;102511.19;146619;780;46014;-68
2023/01/01 12:48:04;;;;;;;;;60.25;48.00;;;;;18.86;51.81;102513.88;146621;563;46020;-67
2023/01/01 12:51:39;;;;;;;;;52.25;40.00;;;;;18.90;52.42;102508.81;146618;579;47012;-66
2023/01/01 12:55:33;;;;;;;;;49.25;38.00;;;;;17.88;51.86;102321.09;146621;569;46020;-66
2023/01/01 12:59:29;;;;;;;;;50.75;41.00;;;;;17.89;53.89;102294.03;146618;601;46016;-66
2023/01/01 13:02:38;;;;;;;;;41.50;35.25;;;;;19.23;51.05;102512.91;146621;578;46020;-66
2023/01/01 13:06:02;;;;;;;;;48.50;40.25;;;;;19.39;52.83;102512.72;146616;569;46016;-66
2023/01/01 13:09:13;;;;;;;;;54.75;42.75;;;;;19.61;51.27;102511.91;146616;614;46010;-66
2023/01/01 13:12:37;;;;;;;;;44.00;36.25;;;;;19.81;49.78;102503.19;146618;567;46015;-67
2023/01/01 13:16:00;;;;;;;;;42.25;35.75;;;;;20.12;52.05;102506.16;146618;563;46038;-66
2023/01/01 13:19:04;;;;;;;;;40.00;32.50;;;;;20.41;46.31;102496.78;146616;616;46016;-66
2023/01/01 13:22:24;;;;;;;;;43.25;36.50;;;;;20.65;49.74;102500.38;146621;615;46010;-66
2023/01/01 13:25:31;;;;;;;;;43.75;35.25;;;;;20.83;45.81;102500.19;146614;565;46012;-66
2023/01/01 13:28:24;;;;;;;;;45.50;37.25;;;;;20.82;45.40;102500.16;146619;571;46021;-66
2023/01/01 13:31:52;;;;;;;;;34.75;30.75;;;;;20.79;47.75;102497.41;146614;639;46014;-66
2023/01/01 13:35:15;;;;;;;;;56.00;43.75;;;;;20.82;48.99;102511.59;146621;646;46011;-67
2023/01/01 13:38:46;;;;;;;;;47.00;39.00;;;;;19.62;50.66;102314.66;146615;622;46016;-66
2023/01/01 13:41:59;;;;;;;;;;;;;;;;;;;;;
2023/01/01 13:45:01;;;;;;;;;64.00;51.75;;;;;20.59;45.75;102520.34;146616;633;46014;-67
2023/01/01 13:48:32;;;;;;;;;61.75;48.00;;;;;20.54;47.91;102514.91;146620;619;46020;-66
2023/01/01 13:52:14;;;;;;;;;43.25;34.75;;;;;20.34;48.38;102516.69;146616;707;46028;-66
2023/01/01 13:55:56;;;;;;;;;48.50;40.00;;;;;20.06;48.22;102514.69;146621;721;46020;-66
2023/01/01 13:59:38;;;;;;;;;46.00;37.00;;;;;18.66;48.38;102313.19;146616;586;46014;-67
2023/01/01 14:02:51;;;;;;;;;45.50;36.25;;;;;19.55;49.90;102517.81;146621;591;46020;-66
2023/01/01 14:06:13;;;;;;;;;47.75;38.75;;;;;19.37;49.73;102517.91;146616;581;46017;-66
2023/01/01 14:09:23;;;;;;;;;50.50;41.00;;;;;19.20;48.05;102525.91;146619;596;46010;-66
2023/01/01 14:12:27;;;;;;;;;47.50;38.00;;;;;18.91;48.29;102529.03;146619;576;46012;-66
2023/01/01 14:16:17;;;;;;;;;48.00;38.00;;;;;17.44;51.27;102322.44;146619;629;46020;-67
2023/01/01 14:19:18;;;;;;;;;44.50;36.25;;;;;18.37;50.06;102540.41;146616;644;46015;-66
2023/01/01 14:22:22;;;;;;;;;39.75;32.75;;;;;18.14;50.05;102555.97;146618;658;46020;-66
2023/01/01 14:25:38;;;;;;;;;43.75;35.75;;;;;16.69;52.07;102338.72;146616;609;46012;-66
2023/01/01 14:28:54;;;;;;;;;46.50;37.00;;;;;16.77;50.00;102393.34;146614;566;46020;-65
2023/01/01 14:31:53;;;;;;;;;41.75;33.00;;;;;17.47;51.24;102549.88;146611;622;46016;-67